Thursday, July 19, 2018, 1:30 PM EDT
Back to Local

KCXY, Harrisburg Capital City

Location: New Cumberland, PA, United States Lat: 40.217
Local Time: 1:30 PM EDT (17:30 GMT) Lon: -76.85
Time Zone: US/Eastern Elev: 347 ft

Show me the last for .
Show Decoded

2018-07-19 12:56 METAR KCXY 191656Z 35005KT 10SM CLR 28/10 A3011 RMK AO2 SLP195 T02830100 =
2018-07-19 11:56 METAR KCXY 191556Z 00000KT 10SM CLR 27/09 A3012 RMK AO2 SLP198 T02670089 =
2018-07-19 10:56 METAR KCXY 191456Z 00000KT 10SM CLR 26/09 A3013 RMK AO2 SLP201 T02560089 51004 =
2018-07-19 09:56 METAR KCXY 191356Z 35004KT 10SM CLR 25/11 A3013 RMK AO2 SLP201 T02500106 =
2018-07-19 08:56 METAR KCXY 191256Z 32005KT 10SM CLR 23/12 A3012 RMK AO2 SLP199 T02330117 =
2018-07-19 07:56 METAR KCXY 191156Z 33004KT 10SM CLR 21/13 A3011 RMK AO2 SLP196 T02110133 10217
                 20161 52009 =
2018-07-19 06:56 METAR KCXY 191056Z 24004KT 10SM CLR 18/13 A3011 RMK AO2 SLP193 T01780133 =
2018-07-19 05:56 METAR KCXY 190956Z AUTO 24003KT 10SM CLR 16/12 A3009 RMK AO2 SLP190 T01610122 =
2018-07-19 04:56 METAR KCXY 190856Z AUTO 26003KT 10SM CLR 17/13 A3009 RMK AO2 SLP186 T01720128
                 51012 =
2018-07-19 03:56 METAR KCXY 190756Z AUTO 00000KT 10SM CLR 18/13 A3008 RMK AO2 SLP183 T01830128 =
2018-07-19 02:56 METAR KCXY 190656Z AUTO 34003KT 10SM CLR 22/12 A3007 RMK AO2 SLP180 T02170117 =
2018-07-19 01:56 METAR KCXY 190556Z AUTO 13004KT 10SM CLR 21/13 A3005 RMK AO2 SLP174 T02110133
                 10283 20189 53017 =
2018-07-19 00:56 METAR KCXY 190456Z AUTO 00000KT 10SM CLR 19/16 A3004 RMK AO2 SLP171 T01940156
                 403060189 =
2018-07-18 23:56 METAR KCXY 190356Z AUTO 25003KT 10SM CLR 21/15 A3001 RMK AO2 SLP162 T02060150 =
2018-07-18 22:56 METAR KCXY 190256Z AUTO 23004KT 10SM CLR 21/15 A3000 RMK AO2 SLP158 T02060150
                 51014 =
2018-07-18 21:56 METAR KCXY 190156Z AUTO 23003KT 10SM SCT070 22/16 A2999 RMK AO2 SLP155 T02170156
                 =
2018-07-18 20:56 METAR KCXY 190056Z 22003KT 10SM FEW070 24/14 A2997 RMK AO2 SLP147 T02390144 =
2018-07-18 19:56 METAR KCXY 182356Z 36004KT 10SM CLR 28/12 A2996 RMK AO2 SLP143 T02830122 10306
                 20283 53003 =
2018-07-18 18:56 METAR KCXY 182256Z 34006KT 10SM SCT065 29/12 A2996 RMK AO2 SLP142 T02940122 =
2018-07-18 17:56 METAR KCXY 182156Z 31007KT 10SM FEW065 29/12 A2995 RMK AO2 SLP140 T02940117 =
2018-07-18 16:56 METAR KCXY 182056Z 31006KT 10SM SCT070 30/12 A2995 RMK AO2 SLP140 T03000117
                 58007 =
2018-07-18 15:56 METAR KCXY 181956Z COR 36007KT 10SM SCT075 30/12 A2996 RMK AO2 SLP143 T03000117
                 =
2018-07-18 14:56 METAR KCXY 181856Z 34009KT 10SM SCT075 30/12 A2997 RMK AO2 SLP147 T03000122 =
2018-07-18 13:56 METAR KCXY 181756Z 34007KT 300V360 10SM FEW049 SCT060 29/14 A2997 RMK AO2 SLP147
                 T02940139 10294 20233 58004 =

Support USWX by starting your Amazon purchase here.